Time;durP1;ratioP1;P1;durP2;ratioP2;P2;SDS_P1;SDS_P2;PMS_P1;PMS_P2;Temp;Humidity;BMP_temperature;BMP_pressure;BME280_temperature;BME280_humidity;BME280_pressure;Samples;Min_cycle;Max_cycle;Signal;HPM_P1;HPM_P2
2023/06/24 00:00:52;;;;;;;4.40;1.92;;;;;;;27.21;94.85;99952.78;5072452;28;20226;-73
2023/06/24 00:03:18;;;;;;;4.82;1.98;;;;;;;27.29;95.53;99971.00;5071808;28;20214;-73
2023/06/24 00:05:49;;;;;;;4.88;1.90;;;;;;;27.18;95.35;99971.59;5072179;28;20199;-73
2023/06/24 00:08:19;;;;;;;5.45;2.03;;;;;;;27.31;95.60;99966.44;5071988;28;20688;-73
2023/06/24 00:10:46;;;;;;;5.05;2.03;;;;;;;27.05;96.08;99960.72;5053747;28;20225;-74
2023/06/24 00:13:13;;;;;;;3.97;1.80;;;;;;;27.20;95.15;99969.69;5072216;28;20203;-73
2023/06/24 00:15:42;;;;;;;4.45;1.92;;;;;;;27.10;95.16;99953.38;5072364;28;20198;-73
2023/06/24 00:18:09;;;;;;;3.47;1.70;;;;;;;27.03;94.94;99941.34;5072022;28;20202;-73
2023/06/24 00:20:36;;;;;;;3.25;1.70;;;;;;;27.16;95.10;99959.28;5072076;28;20203;-73
2023/06/24 00:23:03;;;;;;;5.45;2.10;;;;;;;26.93;95.21;99932.13;5071718;28;20203;-73
2023/06/24 00:25:31;;;;;;;4.18;1.95;;;;;;;27.16;95.33;99959.28;5053259;28;20213;-73
2023/06/24 00:27:58;;;;;;;5.40;2.00;;;;;;;27.18;94.82;99960.06;5071698;28;20199;-73
2023/06/24 00:30:27;;;;;;;4.03;1.83;;;;;;;27.10;94.90;99944.53;5071865;28;20249;-73
2023/06/24 00:32:54;;;;;;;4.60;1.80;;;;;;;26.88;95.69;99918.22;5071502;28;20731;-73
2023/06/24 00:35:21;;;;;;;3.30;1.58;;;;;;;26.97;94.34;99933.66;5071810;28;20198;-73
2023/06/24 00:37:47;;;;;;;4.22;2.05;;;;;;;27.03;94.50;99943.13;5071997;28;20198;-73
2023/06/24 00:40:16;;;;;;;3.22;1.67;;;;;;;27.15;94.29;99946.94;5071607;28;20546;-73
2023/06/24 00:42:46;;;;;;;4.43;1.73;;;;;;;27.22;93.30;99943.00;5071087;28;20218;-73
2023/06/24 00:45:13;;;;;;;3.08;1.67;;;;;;;26.90;93.86;99912.78;5071716;28;20252;-73
2023/06/24 00:47:41;;;;;;;5.70;2.60;;;;;;;27.08;92.92;99936.59;5071503;28;20203;-73
2023/06/24 00:50:08;;;;;;;4.43;1.98;;;;;;;27.10;93.18;99939.19;5071246;28;20199;-73
2023/06/24 00:52:36;;;;;;;3.78;1.77;;;;;;;27.02;93.15;99941.41;5071388;28;20688;-73
2023/06/24 00:55:04;;;;;;;4.95;1.90;;;;;;;27.03;92.96;99944.00;5070790;28;20238;-73
2023/06/24 00:57:31;;;;;;;4.82;1.85;;;;;;;26.92;93.42;99946.38;5071304;28;20207;-73
2023/06/24 01:00:00;;;;;;;4.40;1.92;;;;;;;26.99;93.36;99942.44;5071058;28;20202;-73
2023/06/24 01:02:27;;;;;;;5.00;2.08;;;;;;;26.97;92.48;99944.31;5071012;28;20203;-73
2023/06/24 01:04:54;;;;;;;4.28;1.98;;;;;;;26.98;92.01;99943.38;5070920;28;20662;-73
2023/06/24 01:07:22;;;;;;;5.85;2.15;;;;;;;26.92;92.99;99945.53;5071124;28;20566;-73
2023/06/24 01:09:49;;;;;;;5.25;2.13;;;;;;;26.71;92.89;99926.22;5070891;28;20194;-72
2023/06/24 01:12:15;;;;;;;5.45;2.10;;;;;;;26.43;92.33;99873.63;5070778;28;20712;-73
2023/06/24 01:14:42;;;;;;;5.05;2.00;;;;;;;26.83;91.10;99936.22;5070831;28;20199;-73
2023/06/24 01:17:15;;;;;;;4.15;1.70;;;;;;;26.93;91.99;99926.78;5070865;28;20582;-73
2023/06/24 01:20:00;;;;;;;4.78;1.90;;;;;;;26.95;91.07;99924.06;5070859;28;20207;-73
2023/06/24 01:22:57;;;;;;;5.10;2.05;;;;;;;26.93;90.19;99928.63;5070921;28;20222;-73
2023/06/24 01:25:41;;;;;;;5.10;1.95;;;;;;;26.87;90.19;99935.13;5070773;28;20199;-73
2023/06/24 01:28:34;;;;;;;7.47;2.67;;;;;;;26.90;89.69;99926.97;5070687;28;20207;-73
2023/06/24 01:31:40;;;;;;;4.85;1.95;;;;;;;26.87;90.06;99921.81;5070728;28;20234;-74
2023/06/24 01:34:17;;;;;;;5.22;2.05;;;;;;;26.82;90.53;99926.53;4989262;28;20204;-73
2023/06/24 01:36:49;;;;;;;3.85;1.80;;;;;;;26.81;90.48;99937.22;4989118;28;20332;-73
2023/06/24 01:39:19;;;;;;;4.60;2.10;;;;;;;26.76;90.72;99928.63;4989234;28;20208;-73
2023/06/24 01:41:51;;;;;;;5.47;2.10;;;;;;;26.72;90.22;99919.94;4989083;28;20201;-73
2023/06/24 01:44:20;;;;;;;4.82;2.00;;;;;;;26.65;89.99;99913.22;4989127;28;20198;-73
2023/06/24 01:46:49;;;;;;;3.88;1.85;;;;;;;26.66;89.94;99917.63;4957300;28;20668;-73
2023/06/24 01:49:20;;;;;;;4.72;1.92;;;;;;;26.61;89.70;99922.34;4972826;28;20763;-73
2023/06/24 01:51:49;;;;;;;5.85;2.25;;;;;;;26.69;89.01;99924.56;4988907;28;20225;-73
2023/06/24 01:54:20;;;;;;;4.93;1.98;;;;;;;26.47;89.35;99903.59;4988669;28;20265;-73
2023/06/24 01:56:49;;;;;;;5.82;2.38;;;;;;;26.66;88.19;99938.91;4995462;28;20229;-73
2023/06/24 01:59:18;;;;;;;5.63;2.22;;;;;;;26.72;87.95;99943.88;4995503;28;20210;-73
2023/06/24 02:01:46;;;;;;;6.07;2.45;;;;;;;26.57;87.96;99942.94;4995400;28;20205;-73
2023/06/24 02:04:15;;;;;;;4.57;1.90;;;;;;;26.61;88.04;99947.13;4979157;28;20201;-73
2023/06/24 02:06:43;;;;;;;7.93;2.88;;;;;;;26.57;88.43;99944.72;4991763;28;20204;-73
2023/06/24 02:09:12;;;;;;;4.07;1.80;;;;;;;26.45;88.55;99950.66;5065387;28;20203;-73
2023/06/24 02:11:40;;;;;;;5.22;1.95;;;;;;;26.38;88.95;99960.78;5041489;28;20223;-73
2023/06/24 02:14:08;;;;;;;5.10;2.13;;;;;;;26.49;88.45;99960.22;5075419;28;20648;-73
2023/06/24 02:16:37;;;;;;;3.58;1.80;;;;;;;26.48;87.67;99958.47;5077083;28;20555;-73
2023/06/24 02:19:05;;;;;;;4.63;1.98;;;;;;;26.39;87.91;99962.50;5075361;28;20601;-73
2023/06/24 02:21:33;;;;;;;5.63;2.17;;;;;;;26.39;87.72;99962.50;5076906;28;20277;-73
2023/06/24 02:24:02;;;;;;;5.22;2.20;;;;;;;26.53;87.79;99969.75;5076830;28;20210;-73
2023/06/24 02:26:29;;;;;;;5.10;2.03;;;;;;;26.28;86.80;99945.38;5076945;28;20209;-73
2023/06/24 02:28:56;;;;;;;5.05;1.95;;;;;;;26.28;88.43;99972.81;5041423;28;20202;-73
2023/06/24 02:31:23;;;;;;;3.97;1.70;;;;;;;26.41;87.25;99976.56;5076718;28;20235;-73
2023/06/24 02:33:50;;;;;;;4.60;1.88;;;;;;;26.24;87.95;99976.56;5076932;28;20206;-73
2023/06/24 02:36:17;;;;;;;4.03;1.80;;;;;;;26.28;87.58;99988.78;5041502;28;20195;-73
2023/06/24 02:38:45;;;;;;;4.75;1.85;;;;;;;26.30;87.53;100001.97;5077113;28;20213;-73
2023/06/24 02:41:13;;;;;;;5.47;2.15;;;;;;;26.35;87.47;100006.13;5076553;28;20209;-73
2023/06/24 02:43:40;;;;;;;6.55;2.42;;;;;;;26.14;86.92;99989.44;5041616;28;20217;-73
2023/06/24 02:46:09;;;;;;;4.20;1.67;;;;;;;26.53;85.84;100001.66;5076737;28;20198;-73
2023/06/24 02:48:38;;;;;;;4.97;1.98;;;;;;;26.53;87.12;100007.00;5076726;28;20195;-73
2023/06/24 02:51:07;;;;;;;3.38;1.75;;;;;;;26.44;88.56;100010.09;5076461;28;20279;-73
2023/06/24 02:53:35;;;;;;;4.00;1.73;;;;;;;26.52;88.72;100015.91;5076666;28;20634;-73
2023/06/24 02:56:04;;;;;;;4.35;1.92;;;;;;;26.59;85.28;100011.97;5076587;28;20195;-73
2023/06/24 02:58:32;;;;;;;5.05;2.10;;;;;;;26.51;86.90;99992.88;5076555;28;20296;-73
2023/06/24 03:01:00;;;;;;;5.03;2.13;;;;;;;26.60;84.94;100022.56;5076402;28;20198;-72
2023/06/24 03:03:28;;;;;;;4.60;2.13;;;;;;;26.66;84.39;100018.69;5076346;28;20217;-72
2023/06/24 03:05:56;;;;;;;5.13;1.77;;;;;;;26.65;86.85;100027.63;5073004;28;20766;-73
2023/06/24 03:08:24;;;;;;;4.95;2.03;;;;;;;26.83;87.95;100025.81;5073385;28;20272;-72
2023/06/24 03:10:52;;;;;;;4.43;1.88;;;;;;;26.87;87.75;100030.91;5073220;28;20241;-72
2023/06/24 03:13:18;;;;;;;4.97;1.95;;;;;;;27.04;85.45;100036.19;5073132;28;20195;-73
2023/06/24 03:15:47;;;;;;;4.15;1.88;;;;;;;27.47;84.30;100028.56;5073230;28;20195;-72
2023/06/24 03:18:13;;;;;;;5.22;2.10;;;;;;;26.96;87.82;99931.97;5073016;28;20207;-72
2023/06/24 03:20:40;;;;;;;5.28;2.10;;;;;;;27.82;87.05;100042.63;5073221;28;20195;-72
2023/06/24 03:23:07;;;;;;;4.80;2.00;;;;;;;28.07;86.97;100046.47;5073025;28;20203;-72
2023/06/24 03:25:35;;;;;;;3.97;1.95;;;;;;;28.41;85.37;100050.72;5073164;28;20206;-72
2023/06/24 03:28:03;;;;;;;4.63;2.03;;;;;;;28.68;81.06;100061.59;5072777;28;20685;-72
2023/06/24 03:30:31;;;;;;;6.40;2.33;;;;;;;29.05;71.97;100052.22;5072558;28;20226;-73
2023/06/24 03:32:59;;;;;;;3.92;1.90;;;;;;;29.66;68.42;100049.25;5072862;28;20239;-73
2023/06/24 03:35:26;;;;;;;4.78;2.08;;;;;;;29.96;64.67;100046.47;5037514;28;20589;-72
2023/06/24 03:37:52;;;;;;;3.65;1.70;;;;;;;30.45;65.98;100047.63;5072755;28;20580;-72
2023/06/24 03:40:19;;;;;;;3.20;1.50;;;;;;;31.00;61.62;100041.16;5054251;28;20198;-72
2023/06/24 03:42:46;;;;;;;3.53;1.77;;;;;;;31.55;60.95;100054.22;5072721;28;20198;-72
2023/06/24 03:45:13;;;;;;;4.65;2.28;;;;;;;31.90;61.04;100063.25;5072490;28;20194;-72
2023/06/24 03:47:39;;;;;;;4.07;1.90;;;;;;;31.86;58.49;100029.56;5072672;28;20277;-72
2023/06/24 03:50:09;;;;;;;3.75;1.85;;;;;;;32.60;57.78;100067.94;5072645;28;20194;-72
2023/06/24 03:52:35;;;;;;;3.55;1.83;;;;;;;33.02;56.47;100078.03;5054150;28;20230;-72
2023/06/24 03:55:04;;;;;;;3.10;1.65;;;;;;;33.44;55.94;100089.97;5072425;28;20190;-72
2023/06/24 03:57:31;;;;;;;3.72;1.90;;;;;;;33.78;52.67;100083.59;5072460;28;20255;-72
2023/06/24 03:59:57;;;;;;;4.38;1.83;;;;;;;34.12;51.22;100062.88;5072582;28;20205;-72
2023/06/24 04:02:24;;;;;;;4.68;1.98;;;;;;;34.44;51.20;100095.22;5053749;28;20243;-75
2023/06/24 04:04:51;;;;;;;4.55;1.70;;;;;;;34.34;54.96;100094.28;5037093;28;20206;-71
2023/06/24 04:07:27;;;;;;;4.65;1.90;;;;;;;34.75;50.90;100097.06;5072217;28;20194;-73
2023/06/24 04:09:55;;;;;;;5.50;2.00;;;;;;;34.91;49.96;100101.16;5072099;28;20672;-72
2023/06/24 04:12:22;;;;;;;5.35;2.00;;;;;;;35.23;47.34;100085.78;5072001;28;20261;-72
2023/06/24 04:14:49;;;;;;;5.13;2.38;;;;;;;35.69;46.18;100088.84;5072200;28;20205;-72
2023/06/24 04:17:16;;;;;;;3.25;1.58;;;;;;;35.95;45.69;100109.97;5036611;28;20556;-72
2023/06/24 04:19:43;;;;;;;4.65;1.98;;;;;;;35.95;45.13;100102.72;5071969;28;20198;-73
2023/06/24 04:22:10;;;;;;;2.90;1.52;;;;;;;36.22;44.36;100102.09;5071871;28;20251;-73
2023/06/24 04:24:38;;;;;;;4.85;1.95;;;;;;;36.12;43.18;100039.09;5071840;28;20610;-72
2023/06/24 04:27:06;;;;;;;3.85;1.80;;;;;;;36.67;42.17;100099.72;5071923;28;20276;-72
2023/06/24 04:29:34;;;;;;;4.90;1.95;;;;;;;36.32;42.34;100097.53;5072125;28;20209;-75
2023/06/24 04:32:01;;;;;;;3.70;1.70;;;;;;;35.98;42.25;100088.94;5071645;28;20784;-75
2023/06/24 04:34:28;;;;;;;4.88;1.95;;;;;;;35.45;43.20;100084.75;5036505;28;20301;-75
2023/06/24 04:36:54;;;;;;;4.38;1.77;;;;;;;35.85;43.15;100087.50;5071675;28;20194;-74
2023/06/24 04:39:21;;;;;;;3.75;1.75;;;;;;;36.12;42.42;100088.56;5071727;28;20209;-75
2023/06/24 04:41:49;;;;;;;3.85;1.77;;;;;;;36.52;41.20;100095.72;5071541;28;20194;-75
2023/06/24 04:44:16;;;;;;;2.53;1.33;;;;;;;36.94;40.59;100098.97;5071685;28;20209;-76
2023/06/24 04:46:43;;;;;;;4.05;1.73;;;;;;;36.87;42.83;100087.03;5036584;28;20202;-75
2023/06/24 04:49:10;;;;;;;2.75;1.70;;;;;;;36.68;43.00;100088.75;5071683;28;20205;-76
2023/06/24 04:51:36;;;;;;;3.13;1.70;;;;;;;37.09;42.91;100084.91;5071661;28;20230;-76
2023/06/24 04:54:04;;;;;;;3.30;1.90;;;;;;;37.57;43.85;100086.59;5071804;28;20193;-76
2023/06/24 04:56:30;;;;;;;5.53;2.00;;;;;;;37.67;42.64;100104.50;5053187;28;20194;-76
2023/06/24 04:58:59;;;;;;;4.65;1.75;;;;;;;38.32;41.50;100099.84;5071589;28;20613;-76
2023/06/24 05:01:25;;;;;;;3.75;1.83;;;;;;;37.58;40.86;100088.31;5071737;28;20194;-76
2023/06/24 05:03:52;;;;;;;4.30;1.67;;;;;;;37.52;40.46;100095.19;5071619;28;20205;-76
2023/06/24 05:06:19;;;;;;;5.10;1.75;;;;;;;36.87;41.73;100089.75;5071825;28;20213;-76
2023/06/24 05:08:45;;;;;;;7.30;2.28;;;;;;;36.27;44.36;100078.22;5071556;28;20231;-77
2023/06/24 05:11:12;;;;;;;4.68;1.73;;;;;;;36.09;43.67;100077.19;5071497;28;20198;-76
2023/06/24 05:13:39;;;;;;;4.57;1.75;;;;;;;36.62;42.90;100078.53;5071152;28;20723;-76
2023/06/24 05:16:07;;;;;;;3.60;1.42;;;;;;;36.78;42.24;100078.78;5071684;28;20623;-76
2023/06/24 05:18:34;;;;;;;4.10;1.60;;;;;;;36.74;40.88;100081.94;5071552;28;20206;-76
2023/06/24 05:21:01;;;;;;;5.32;1.73;;;;;;;34.31;45.11;100073.88;5071643;28;20209;-77
2023/06/24 05:23:27;;;;;;;8.45;2.38;;;;;;;34.15;46.21;100070.72;5071701;28;20205;-75
2023/06/24 05:25:54;;;;;;;3.78;1.48;;;;;;;34.25;46.28;100057.34;5071065;28;20691;-78
2023/06/24 05:28:21;;;;;;;6.25;1.83;;;;;;;34.85;46.62;100062.94;5070532;28;20194;-74
2023/06/24 05:30:48;;;;;;;4.03;1.60;;;;;;;35.84;43.45;100073.13;5071755;28;20242;-77
2023/06/24 05:33:16;;;;;;;4.75;1.73;;;;;;;36.69;42.32;100074.25;5071614;28;20296;-76
2023/06/24 05:35:44;;;;;;;5.53;1.98;;;;;;;36.74;42.14;100088.19;5071194;28;20198;-77
2023/06/24 05:38:11;;;;;;;5.65;2.03;;;;;;;36.33;41.98;100083.03;5036236;28;20193;-76
2023/06/24 05:40:37;;;;;;;7.82;2.38;;;;;;;35.13;45.99;100077.66;5069449;28;20202;-75
2023/06/24 05:43:05;;;;;;;6.70;2.20;;;;;;;35.68;44.79;100081.75;5070570;28;20209;-75
2023/06/24 05:45:31;;;;;;;5.85;2.08;;;;;;;36.56;42.93;100092.63;5071179;28;20198;-75
2023/06/24 05:47:58;;;;;;;5.20;1.90;;;;;;;37.17;41.29;100111.22;5070838;28;20202;-75
2023/06/24 05:50:26;;;;;;;4.82;1.83;;;;;;;37.60;40.86;100111.50;5057590;28;20252;-76
2023/06/24 05:52:53;;;;;;;6.13;1.92;;;;;;;37.56;40.96;100112.84;5027995;28;20280;-76
2023/06/24 05:55:20;;;;;;;4.72;1.70;;;;;;;37.25;40.85;100097.78;5065566;28;20280;-75
2023/06/24 05:57:47;;;;;;;6.18;2.03;;;;;;;37.33;40.93;100114.16;5070344;28;20202;-74
2023/06/24 06:00:14;;;;;;;4.40;1.80;;;;;;;37.38;41.38;100120.00;5070253;28;20333;-74
2023/06/24 06:02:41;;;;;;;6.68;2.28;;;;;;;37.53;41.34;100115.81;5035609;28;20665;-74
2023/06/24 06:05:08;;;;;;;6.13;2.22;;;;;;;37.54;42.31;100127.50;5070683;28;20213;-72
2023/06/24 06:07:38;;;;;;;5.75;2.05;;;;;;;36.35;44.19;100129.69;5070892;28;20230;-75
2023/06/24 06:10:06;;;;;;;3.80;1.63;;;;;;;35.89;45.54;100116.75;5070681;28;20638;-76
2023/06/24 06:12:33;;;;;;;5.95;1.90;;;;;;;36.33;45.97;100126.25;5070137;28;20246;-75
2023/06/24 06:14:59;;;;;;;5.53;2.35;;;;;;;36.48;43.31;100130.28;5062369;28;20697;-75
2023/06/24 06:17:26;;;;;;;2.55;1.25;;;;;;;34.80;45.19;100061.66;5064273;28;20218;-76
2023/06/24 06:19:53;;;;;;;5.82;1.98;;;;;;;35.63;45.01;100129.88;5071449;28;20205;-75
2023/06/24 06:22:19;;;;;;;4.35;1.60;;;;;;;35.50;45.71;100112.16;5070785;28;20677;-75
2023/06/24 06:24:48;;;;;;;7.88;2.20;;;;;;;35.89;44.62;100132.94;5070523;28;20190;-74
2023/06/24 06:27:14;;;;;;;4.05;1.58;;;;;;;35.82;45.33;100130.97;5070845;28;20255;-74
2023/06/24 06:29:41;;;;;;;3.95;1.60;;;;;;;35.73;44.25;100125.38;5071194;28;20267;-76
2023/06/24 06:32:08;;;;;;;5.20;1.88;;;;;;;35.38;45.00;100132.13;5070337;28;20284;-75
2023/06/24 06:34:36;;;;;;;5.57;2.03;;;;;;;35.13;46.15;100133.41;5070518;28;20198;-75
2023/06/24 06:37:03;;;;;;;5.88;2.08;;;;;;;35.35;45.77;100133.28;5070225;28;20681;-76
2023/06/24 06:39:30;;;;;;;7.40;2.13;;;;;;;35.34;45.91;100123.47;5070449;28;20681;-74
2023/06/24 06:41:58;;;;;;;6.00;1.98;;;;;;;35.04;46.05;100140.41;5073621;28;20217;-75
2023/06/24 06:44:25;;;;;;;5.10;1.88;;;;;;;34.44;47.27;100141.00;5073733;28;20669;-74
2023/06/24 06:46:51;;;;;;;4.10;1.55;;;;;;;34.16;49.61;100145.13;5074231;28;20669;-75
2023/06/24 06:49:18;;;;;;;5.78;1.95;;;;;;;33.65;50.26;100135.84;5073938;28;20241;-75
2023/06/24 06:51:45;;;;;;;7.13;2.35;;;;;;;33.45;52.72;100136.53;5073634;28;20206;-75
2023/06/24 06:54:11;;;;;;;3.00;1.35;;;;;;;33.21;52.41;100134.78;5060722;28;20218;-77
2023/06/24 06:56:39;;;;;;;5.00;1.67;;;;;;;33.23;52.11;100140.06;5056462;28;20207;-75
2023/06/24 06:59:07;;;;;;;7.80;2.17;;;;;;;33.25;52.11;100140.78;5059879;28;20672;-75
2023/06/24 07:01:34;;;;;;;7.00;2.20;;;;;;;32.96;53.03;100132.28;5062704;28;20632;-74
2023/06/24 07:04:01;;;;;;;6.63;2.00;;;;;;;33.08;52.60;100109.81;5063194;28;20209;-75
2023/06/24 07:06:28;;;;;;;6.60;2.10;;;;;;;33.24;52.39;100133.72;5073637;28;20202;-74
2023/06/24 07:08:55;;;;;;;6.47;2.00;;;;;;;33.31;52.68;100122.34;5074079;28;20232;-77
2023/06/24 07:11:21;;;;;;;7.22;2.10;;;;;;;33.25;53.80;100127.34;5059918;28;20207;-77
2023/06/24 07:13:50;;;;;;;7.43;2.22;;;;;;;33.47;53.07;100130.06;5055164;28;20684;-75
2023/06/24 07:16:18;;;;;;;2.97;1.25;;;;;;;33.77;52.70;100124.97;5074085;28;20626;-75
2023/06/24 07:18:45;;;;;;;6.78;2.10;;;;;;;33.69;53.04;100122.03;5073256;28;20214;-76
2023/06/24 07:21:12;;;;;;;6.05;1.88;;;;;;;33.85;52.27;100118.97;5073194;28;20214;-76
2023/06/24 07:23:39;;;;;;;6.55;2.10;;;;;;;33.94;52.62;100109.28;5059005;28;20279;-75
2023/06/24 07:26:05;;;;;;;4.57;1.98;;;;;;;33.89;52.73;100080.91;5073009;28;20597;-74
2023/06/24 07:28:33;;;;;;;5.15;1.92;;;;;;;33.84;52.71;100104.66;5058864;28;20207;-75
2023/06/24 07:30:59;;;;;;;7.65;2.30;;;;;;;33.74;54.27;100095.63;5072754;28;20232;-75
2023/06/24 07:33:30;;;;;;;6.70;2.08;;;;;;;33.62;54.11;100082.25;5073204;28;20230;-75
2023/06/24 07:35:57;;;;;;;6.60;2.00;;;;;;;33.55;53.14;100086.41;5037418;28;20206;-75
2023/06/24 07:38:24;;;;;;;6.22;1.98;;;;;;;33.48;53.04;100078.00;5073247;28;20268;-75
2023/06/24 07:40:50;;;;;;;6.85;2.33;;;;;;;33.92;53.75;100068.19;5059119;28;20203;-76
2023/06/24 07:43:17;;;;;;;5.05;1.90;;;;;;;34.00;55.02;100089.97;5054311;28;20214;-76
2023/06/24 07:45:44;;;;;;;6.72;2.08;;;;;;;33.89;51.32;100064.75;5037576;28;20206;-75
2023/06/24 07:48:11;;;;;;;4.78;1.65;;;;;;;34.28;51.89;100073.28;5028923;28;20202;-76
2023/06/24 07:50:39;;;;;;;6.43;2.00;;;;;;;34.38;50.54;100090.38;5067120;28;20203;-75
2023/06/24 07:53:06;;;;;;;7.13;2.20;;;;;;;34.40;51.16;100058.75;5071709;28;20242;-75
2023/06/24 07:55:33;;;;;;;4.32;1.58;;;;;;;33.84;50.66;100085.81;5059690;28;20210;-75
2023/06/24 07:57:59;;;;;;;3.97;1.95;;;;;;;33.84;49.29;100098.41;5072168;28;20203;-76
2023/06/24 08:00:26;;;;;;;4.50;1.67;;;;;;;34.31;50.34;100086.47;5042450;28;20210;-76
2023/06/24 08:02:55;;;;;;;5.95;2.00;;;;;;;34.26;49.80;100081.47;5055618;28;20210;-76
2023/06/24 08:05:21;;;;;;;4.07;1.63;;;;;;;34.06;45.55;100108.28;5072436;28;20673;-75
2023/06/24 08:07:51;;;;;;;7.00;2.58;;;;;;;34.18;45.99;100102.78;5072445;28;20209;-75
2023/06/24 08:10:18;;;;;;;6.45;1.98;;;;;;;34.41;45.43;100103.56;5064480;28;20576;-74
2023/06/24 08:12:45;;;;;;;5.97;1.90;;;;;;;34.34;47.66;100100.53;5065918;28;20233;-75
2023/06/24 08:15:12;;;;;;;3.65;1.52;;;;;;;34.24;45.34;100078.06;5058240;28;20217;-75
2023/06/24 08:17:39;;;;;;;5.10;1.73;;;;;;;34.27;43.91;100101.16;5025066;28;20199;-75
2023/06/24 08:20:06;;;;;;;5.38;1.90;;;;;;;34.40;45.86;100090.22;5055950;28;20211;-74
2023/06/24 08:22:33;;;;;;;6.25;2.10;;;;;;;34.52;45.59;100089.19;5036634;28;20213;-73
2023/06/24 08:25:01;;;;;;;6.82;2.03;;;;;;;34.61;44.40;100093.78;5071990;28;20206;-76
2023/06/24 08:27:28;;;;;;;5.13;1.73;;;;;;;34.46;45.13;100077.09;5071846;28;20775;-74
2023/06/24 08:29:54;;;;;;;5.30;1.77;;;;;;;34.30;45.18;100026.38;5071456;28;20716;-73
2023/06/24 08:32:21;;;;;;;4.45;1.85;;;;;;;34.73;44.14;100095.50;5071590;28;20251;-76
2023/06/24 08:34:48;;;;;;;5.72;1.95;;;;;;;34.32;43.98;100094.41;5071706;28;20217;-74
2023/06/24 08:37:15;;;;;;;7.00;2.10;;;;;;;34.58;43.11;100088.66;5049513;28;20206;-73
2023/06/24 08:39:41;;;;;;;3.85;1.55;;;;;;;34.74;42.22;100087.28;5063146;28;20681;-74
2023/06/24 08:42:10;;;;;;;5.20;1.67;;;;;;;34.82;43.20;100090.16;5071304;28;20190;-74
2023/06/24 08:44:36;;;;;;;5.63;1.80;;;;;;;34.87;43.58;100091.63;5071373;28;20279;-74
2023/06/24 08:47:04;;;;;;;4.13;1.50;;;;;;;34.78;42.90;100091.41;5071357;28;20202;-73
2023/06/24 08:49:31;;;;;;;3.03;1.38;;;;;;;34.90;43.40;100081.44;5071714;28;20669;-73
2023/06/24 08:52:03;;;;;;;5.60;1.90;;;;;;;35.07;43.40;100091.59;5071378;28;20202;-73
2023/06/24 08:54:31;;;;;;;3.45;1.48;;;;;;;35.00;41.69;100097.66;5063997;28;20309;-73
2023/06/24 08:57:00;;;;;;;4.40;1.63;;;;;;;35.32;42.01;100101.16;5063184;28;20201;-73
2023/06/24 08:59:28;;;;;;;3.15;1.40;;;;;;;35.45;40.25;100082.91;5057305;28;20281;-72
2023/06/24 09:01:55;;;;;;;4.90;1.73;;;;;;;35.02;40.33;100093.88;5062374;28;20222;-72
2023/06/24 09:04:21;;;;;;;4.18;1.65;;;;;;;35.16;41.08;100087.31;5064971;28;20206;-72
2023/06/24 09:06:49;;;;;;;4.13;1.63;;;;;;;35.14;40.07;100086.59;5071007;28;20251;-75
2023/06/24 09:09:20;;;;;;;4.70;1.80;;;;;;;35.31;41.55;100083.28;5071044;28;20205;-72
2023/06/24 09:11:53;;;;;;;3.20;1.40;;;;;;;35.44;39.93;100083.03;5037994;28;20245;-72
2023/06/24 09:14:20;;;;;;;5.82;2.00;;;;;;;35.15;40.01;100077.50;5070823;28;20309;-72
2023/06/24 09:16:54;;;;;;;3.50;1.33;;;;;;;35.06;37.09;100083.66;5051969;28;20240;-73
2023/06/24 09:19:22;;;;;;;5.25;1.75;;;;;;;35.14;35.41;100086.59;5051194;28;20213;-73
2023/06/24 09:21:48;;;;;;;6.00;1.90;;;;;;;35.21;36.64;100083.19;5069223;28;20384;-73
2023/06/24 09:24:15;;;;;;;4.78;1.63;;;;;;;35.25;37.28;100090.03;5070808;28;20633;-74
2023/06/24 09:26:44;;;;;;;6.15;1.88;;;;;;;35.28;36.69;100075.47;5067989;28;20275;-72
2023/06/24 09:29:11;;;;;;;5.20;1.85;;;;;;;35.01;36.83;100080.50;5060102;28;20677;-73
2023/06/24 09:31:47;;;;;;;3.35;1.50;;;;;;;34.81;37.22;100052.59;5070471;28;20245;-73
2023/06/24 09:34:17;;;;;;;5.68;2.00;;;;;;;35.34;37.42;100083.00;5070606;28;20229;-73
2023/06/24 09:36:45;;;;;;;3.78;1.60;;;;;;;35.39;37.38;100064.56;5056462;28;20198;-75
2023/06/24 09:39:12;;;;;;;5.43;1.98;;;;;;;35.64;37.93;100077.59;5070600;28;20753;-74
2023/06/24 09:41:42;;;;;;;3.17;1.40;;;;;;;35.39;37.76;100075.34;5070543;28;20702;-75
2023/06/24 09:44:09;;;;;;;2.55;1.25;;;;;;;35.40;38.74;100077.06;5056934;28;20261;-73
2023/06/24 09:46:37;;;;;;;3.42;1.42;;;;;;;35.41;38.33;100073.38;5023359;28;20199;-73
2023/06/24 09:49:04;;;;;;;3.75;1.58;;;;;;;35.61;38.30;100064.41;5050954;28;20191;-73
2023/06/24 09:51:35;;;;;;;4.25;1.60;;;;;;;35.34;38.11;100058.72;5050859;28;20215;-73
2023/06/24 09:54:05;;;;;;;3.72;1.63;;;;;;;35.34;37.99;100056.03;5050572;28;20671;-73
2023/06/24 09:56:32;;;;;;;3.85;1.70;;;;;;;35.32;36.46;100074.16;5050877;28;20198;-74
2023/06/24 09:58:59;;;;;;;3.75;1.52;;;;;;;35.47;36.29;100067.44;5050567;28;20202;-74
2023/06/24 10:01:26;;;;;;;3.08;1.33;;;;;;;35.33;35.46;100073.19;5051085;28;20269;-78
2023/06/24 10:03:53;;;;;;;4.50;1.73;;;;;;;35.10;35.89;100063.56;5050841;28;20209;-74
2023/06/24 10:06:20;;;;;;;4.68;1.65;;;;;;;35.42;36.72;100053.53;5050564;28;20195;-74
2023/06/24 10:08:49;;;;;;;5.07;1.90;;;;;;;35.56;37.49;100061.25;5050718;28;20202;-74
2023/06/24 10:11:15;;;;;;;3.38;1.48;;;;;;;35.97;35.71;100060.22;5032059;28;20278;-74
2023/06/24 10:13:42;;;;;;;3.75;1.42;;;;;;;36.12;35.71;100048.06;5050340;28;20226;-74
2023/06/24 10:16:09;;;;;;;5.13;1.70;;;;;;;35.79;36.02;100059.19;5018657;28;20203;-74
2023/06/24 10:18:37;;;;;;;2.90;1.48;;;;;;;35.97;33.98;100068.31;5019578;28;20195;-74
2023/06/24 10:21:05;;;;;;;6.03;2.00;;;;;;;36.13;34.95;100059.72;5054519;28;20206;-75
2023/06/24 10:23:34;;;;;;;4.85;1.83;;;;;;;36.08;34.64;100060.13;5054597;28;20239;-73
2023/06/24 10:26:02;;;;;;;5.28;1.90;;;;;;;35.96;35.64;100044.19;5036127;28;20210;-73
2023/06/24 10:29:10;;;;;;;2.50;1.30;;;;;;;36.37;33.78;100052.06;5054469;28;20210;-74
2023/06/24 10:31:53;;;;;;;4.35;1.60;;;;;;;36.29;34.85;100055.47;5054612;28;20360;-74
2023/06/24 10:34:32;;;;;;;5.10;1.95;;;;;;;36.33;35.51;100049.78;5054055;28;20269;-74
2023/06/24 10:37:01;;;;;;;4.97;1.88;;;;;;;36.02;34.69;100046.31;5054128;28;20209;-74
2023/06/24 10:39:39;;;;;;;5.93;2.00;;;;;;;36.14;33.88;100061.41;5053837;28;20190;-74
2023/06/24 10:42:37;;;;;;;5.07;1.83;;;;;;;36.18;34.08;100058.28;5054053;28;20205;-75
2023/06/24 10:45:15;;;;;;;6.38;2.10;;;;;;;36.16;34.65;100048.63;5054125;28;20199;-74
2023/06/24 10:47:44;;;;;;;4.38;1.67;;;;;;;35.86;34.72;100056.78;5054196;28;20199;-77
2023/06/24 10:50:12;;;;;;;4.75;1.90;;;;;;;35.71;34.43;100030.19;5054621;28;20206;-75
2023/06/24 10:52:40;;;;;;;5.10;1.75;;;;;;;35.84;35.40;100046.16;5054686;28;20225;-75
2023/06/24 10:55:08;;;;;;;4.07;1.63;;;;;;;36.00;33.92;100049.16;5053862;28;20231;-75
2023/06/24 10:57:36;;;;;;;4.05;1.80;;;;;;;35.66;34.53;100040.56;5053867;28;20243;-75
2023/06/24 11:00:04;;;;;;;4.97;1.83;;;;;;;35.72;34.07;100036.44;5053738;28;20633;-75
2023/06/24 11:02:31;;;;;;;4.50;1.70;;;;;;;35.82;33.94;100028.41;5051597;28;20199;-75
2023/06/24 11:05:01;;;;;;;4.13;1.65;;;;;;;36.25;34.26;100034.28;5053765;28;20206;-75
2023/06/24 11:07:30;;;;;;;3.00;1.35;;;;;;;36.44;33.44;100019.91;5053637;28;20195;-76
2023/06/24 11:09:59;;;;;;;3.88;1.60;;;;;;;36.23;31.78;100033.56;5053618;28;20191;-74
2023/06/24 11:12:27;;;;;;;4.57;1.88;;;;;;;36.33;32.56;100022.75;5053834;28;20639;-76
2023/06/24 11:14:58;;;;;;;4.82;1.85;;;;;;;36.54;30.62;100021.59;5053880;28;20218;-76
2023/06/24 11:17:25;;;;;;;5.07;1.80;;;;;;;36.18;32.29;100006.97;5019444;28;20237;-76
2023/06/24 11:19:53;;;;;;;5.60;1.95;;;;;;;36.63;32.65;100030.75;5054358;28;20222;-76
2023/06/24 11:22:20;;;;;;;4.13;1.83;;;;;;;36.58;31.76;100017.66;5053877;28;20716;-75
2023/06/24 11:24:47;;;;;;;5.32;2.00;;;;;;;36.66;31.64;100008.84;5018612;28;20207;-74
2023/06/24 11:27:14;;;;;;;5.50;2.10;;;;;;;36.80;31.13;100015.63;5017004;28;20685;-75
2023/06/24 11:29:41;;;;;;;5.53;1.90;;;;;;;36.46;32.65;100012.53;5053596;28;20195;-75
2023/06/24 11:32:10;;;;;;;4.00;1.55;;;;;;;36.59;32.91;100013.97;5053356;28;20230;-75